createdAt,value
2023-02-12T00:01:18.616Z,103521.28
2023-02-12T00:03:45.195Z,103631.66
2023-02-12T00:06:15.733Z,103607.41
2023-02-12T00:08:42.949Z,103600.47
2023-02-12T00:11:13.509Z,103635.44
2023-02-12T00:13:40.456Z,103527.59
2023-02-12T00:16:09.485Z,103639.81
2023-02-12T00:18:37.163Z,103579.25
2023-02-12T00:21:04.433Z,103621.03
2023-02-12T00:23:31.508Z,103534.50
2023-02-12T00:25:58.306Z,103603.63
2023-02-12T00:28:26.851Z,103547.03
2023-02-12T00:30:55.265Z,103619.22
2023-02-12T00:33:22.061Z,103629.91
2023-02-12T00:35:58.638Z,103622.47
2023-02-12T00:38:25.230Z,103610.19
2023-02-12T00:40:52.000Z,103596.53
2023-02-12T00:43:18.633Z,103517.88
2023-02-12T00:45:46.362Z,103641.63
2023-02-12T00:48:14.377Z,103585.94
2023-02-12T00:50:41.627Z,103628.19
2023-02-12T00:53:08.332Z,103604.13
2023-02-12T00:55:35.370Z,103614.00
2023-02-12T00:58:02.086Z,103529.69
2023-02-12T01:00:28.869Z,103598.06
2023-02-12T01:02:56.821Z,103589.81
2023-02-12T01:05:23.821Z,103509.63
2023-02-12T01:07:53.660Z,103593.06
2023-02-12T01:10:21.002Z,103554.34
2023-02-12T01:12:48.633Z,103631.44
2023-02-12T01:15:16.217Z,103533.66
2023-02-12T01:17:43.286Z,103534.19
2023-02-12T01:20:13.627Z,103635.09
2023-02-12T01:22:40.433Z,103525.81
2023-02-12T01:25:07.672Z,103550.25
2023-02-12T01:27:34.248Z,103555.56
2023-02-12T01:30:00.830Z,103614.47
2023-02-12T01:32:27.575Z,103637.53
2023-02-12T01:34:54.233Z,103598.97
2023-02-12T01:37:21.843Z,103540.38
2023-02-12T01:39:48.401Z,103611.00
2023-02-12T01:42:18.609Z,103631.44
2023-02-12T01:45:13.871Z,103635.91
2023-02-12T01:47:45.405Z,103596.75
2023-02-12T01:50:16.573Z,103644.06
2023-02-12T01:52:48.386Z,103632.94
2023-02-12T01:55:15.825Z,103614.03
2023-02-12T01:57:45.938Z,103508.34
2023-02-12T02:00:30.829Z,103595.06
2023-02-12T02:03:01.931Z,103626.56
2023-02-12T02:05:47.994Z,103631.97
2023-02-12T02:08:15.039Z,103548.81
2023-02-12T02:10:41.958Z,103537.09
2023-02-12T02:13:27.318Z,103545.34
2023-02-12T02:15:59.890Z,103465.50
2023-02-12T02:18:29.186Z,103628.03
2023-02-12T02:21:07.795Z,103621.59
2023-02-12T02:23:39.558Z,103618.63
2023-02-12T02:26:33.390Z,103620.94
2023-02-12T02:29:20.404Z,103589.75
2023-02-12T02:32:02.871Z,103496.56
2023-02-12T02:34:39.856Z,103576.66
2023-02-12T02:37:51.031Z,103604.16
2023-02-12T02:40:27.050Z,103567.16
2023-02-12T02:43:04.552Z,103533.72
2023-02-12T02:45:43.241Z,103612.88
2023-02-12T02:48:18.650Z,103488.47
2023-02-12T02:50:51.554Z,103566.91
2023-02-12T02:53:28.298Z,103526.53
2023-02-12T02:55:58.873Z,103552.91
2023-02-12T02:58:32.535Z,103600.63
2023-02-12T03:01:05.972Z,103539.16
2023-02-12T03:03:38.225Z,103489.66
2023-02-12T03:06:13.505Z,103574.72
2023-02-12T03:08:44.663Z,103440.41
2023-02-12T03:11:17.027Z,103574.78
2023-02-12T03:13:49.507Z,103491.53
2023-02-12T03:16:27.690Z,103583.13
2023-02-12T03:19:02.306Z,103506.91
2023-02-12T03:21:51.791Z,103598.84
2023-02-12T03:24:32.984Z,103581.72
2023-02-12T03:27:07.320Z,103568.50
2023-02-12T03:29:34.137Z,103507.06
2023-02-12T03:32:09.944Z,103492.06
2023-02-12T03:34:45.062Z,103496.88
2023-02-12T03:37:24.669Z,103604.34
2023-02-12T03:40:11.386Z,103602.50
2023-02-12T03:42:48.402Z,103574.56
2023-02-12T03:45:42.346Z,103499.94
2023-02-12T03:48:15.101Z,103602.50
2023-02-12T03:50:50.924Z,103605.38
2023-02-12T03:53:17.608Z,103594.16
2023-02-12T03:55:48.797Z,103576.41
2023-02-12T03:58:21.440Z,103609.75
2023-02-12T04:00:48.042Z,103601.09
2023-02-12T04:03:14.736Z,103560.75
2023-02-12T04:05:41.342Z,103580.72
2023-02-12T04:08:11.209Z,103516.28
2023-02-12T04:11:13.239Z,103623.19
2023-02-12T04:13:52.587Z,103598.94
2023-02-12T04:16:43.816Z,103628.03
2023-02-12T04:19:14.933Z,103603.47
2023-02-12T04:21:53.955Z,103619.78
2023-02-12T04:25:03.415Z,103613.09
2023-02-12T04:27:47.839Z,103584.44
2023-02-12T04:30:24.989Z,103637.88
2023-02-12T04:32:57.076Z,103557.94
2023-02-12T04:35:34.917Z,103637.16
2023-02-12T04:38:10.646Z,103604.94
2023-02-12T04:40:40.765Z,103584.16
2023-02-12T04:43:07.610Z,103622.00
2023-02-12T04:45:37.089Z,103553.91
2023-02-12T04:48:04.548Z,103651.63
2023-02-12T04:50:39.772Z,103618.38
2023-02-12T04:53:06.389Z,103624.53
2023-02-12T04:55:33.031Z,103567.44
2023-02-12T04:57:59.638Z,103542.78
2023-02-12T05:00:26.313Z,103624.09
2023-02-12T05:02:52.803Z,103620.06
2023-02-12T05:05:19.479Z,103527.28
2023-02-12T05:07:46.193Z,103597.50
2023-02-12T05:10:12.768Z,103547.03
2023-02-12T05:12:39.335Z,103523.41
2023-02-12T05:15:06.483Z,103631.88
2023-02-12T05:17:33.280Z,103636.94
2023-02-12T05:19:59.807Z,103615.34
2023-02-12T05:22:26.334Z,103548.19
2023-02-12T05:24:52.941Z,103548.50
2023-02-12T05:27:19.523Z,103609.63
2023-02-12T05:29:46.083Z,103492.22
2023-02-12T05:32:12.838Z,103552.06
2023-02-12T05:34:39.342Z,103502.22
2023-02-12T05:37:06.030Z,103642.66
2023-02-12T05:39:32.606Z,103525.47
2023-02-12T05:41:59.168Z,103652.75
2023-02-12T05:44:25.756Z,103626.97
2023-02-12T05:46:52.324Z,103541.75
2023-02-12T05:49:18.887Z,103486.50
2023-02-12T05:51:45.540Z,103570.09
2023-02-12T05:54:12.161Z,103543.81
2023-02-12T05:56:44.108Z,103622.28
2023-02-12T05:59:20.729Z,103636.50
2023-02-12T06:01:48.504Z,103652.59
2023-02-12T06:04:27.936Z,103667.06
2023-02-12T06:06:55.954Z,103614.66
2023-02-12T06:09:23.034Z,103628.09
2023-02-12T06:11:49.589Z,103625.81
2023-02-12T06:14:18.334Z,103562.13
2023-02-12T06:16:49.911Z,103673.16
2023-02-12T06:19:17.179Z,103560.50
2023-02-12T06:21:44.362Z,103582.22
2023-02-12T06:24:12.919Z,103563.31
2023-02-12T06:26:39.772Z,103678.03
2023-02-12T06:29:06.339Z,103673.97
2023-02-12T06:31:35.597Z,103676.03
2023-02-12T06:34:05.582Z,103676.03
2023-02-12T06:36:32.883Z,103630.34
2023-02-12T06:39:02.685Z,103647.09
2023-02-12T06:41:29.701Z,103564.94
2023-02-12T06:43:56.262Z,103569.66
2023-02-12T06:46:23.348Z,103665.66
2023-02-12T06:48:53.713Z,103656.16
2023-02-12T06:51:21.846Z,103637.22
2023-02-12T06:53:48.565Z,103659.50
2023-02-12T06:56:15.174Z,103664.16
2023-02-12T06:58:44.321Z,103686.50
2023-02-12T07:01:17.810Z,103586.84
2023-02-12T07:03:50.536Z,103694.72
2023-02-12T07:06:18.200Z,103667.28
2023-02-12T07:08:44.825Z,103678.13
2023-02-12T07:11:11.817Z,103596.94
2023-02-12T07:13:43.210Z,103585.81
2023-02-12T07:16:12.390Z,103583.84
2023-02-12T07:18:39.992Z,103605.66
2023-02-12T07:21:08.445Z,103590.75
2023-02-12T07:23:35.827Z,103707.22
2023-02-12T07:26:08.761Z,103603.13
2023-02-12T07:28:35.745Z,103706.16
2023-02-12T07:31:23.293Z,103708.66
2023-02-12T07:33:53.778Z,103595.50
2023-02-12T07:36:20.896Z,103687.91
2023-02-12T07:38:47.595Z,103696.19
2023-02-12T07:41:25.706Z,103693.63
2023-02-12T07:44:14.683Z,103715.28
2023-02-12T07:49:36.781Z,103722.63
2023-02-12T07:52:03.354Z,103721.59
2023-02-12T07:54:29.824Z,103723.22
2023-02-12T07:56:56.386Z,103720.56
2023-02-12T07:59:22.959Z,103717.31
2023-02-12T08:01:52.250Z,103698.91
2023-02-12T08:04:22.167Z,103721.59
2023-02-12T08:06:51.325Z,103711.81
2023-02-12T08:09:20.984Z,103628.47
2023-02-12T08:11:48.784Z,103718.44
2023-02-12T08:14:17.894Z,103642.53
2023-02-12T08:16:46.056Z,103636.13
2023-02-12T08:19:20.942Z,103713.53
2023-02-12T08:21:51.413Z,103717.41
2023-02-12T08:24:18.153Z,103734.94
2023-02-12T08:26:45.147Z,103746.75
2023-02-12T08:29:15.041Z,103744.41
2023-02-12T08:31:44.706Z,103718.63
2023-02-12T08:34:22.695Z,103751.66
2023-02-12T08:36:50.940Z,103657.91
2023-02-12T08:39:18.785Z,103751.47
2023-02-12T08:41:46.075Z,103659.72
2023-02-12T08:44:13.506Z,103753.09
2023-02-12T08:46:46.642Z,103646.19
2023-02-12T08:49:22.258Z,103663.63
2023-02-12T08:51:51.148Z,103748.63
2023-02-12T08:54:20.812Z,103740.59
2023-02-12T08:56:47.370Z,103750.19
2023-02-12T08:59:15.664Z,103766.41
2023-02-12T09:01:43.513Z,103754.75
2023-02-12T09:04:17.706Z,103765.28
2023-02-12T09:06:45.121Z,103776.41
2023-02-12T09:09:11.642Z,103763.13
2023-02-12T09:11:38.240Z,103666.50
2023-02-12T09:14:07.249Z,103777.63
2023-02-12T09:16:35.454Z,103692.06
2023-02-12T09:19:02.858Z,103644.88
2023-02-12T09:21:29.434Z,103784.34
2023-02-12T09:23:56.233Z,103767.81
2023-02-12T09:26:25.751Z,103722.84
2023-02-12T09:28:52.975Z,103780.66
2023-02-12T09:31:28.330Z,103791.78
2023-02-12T09:33:58.928Z,103783.06
2023-02-12T09:36:25.737Z,103770.81
2023-02-12T09:38:54.116Z,103783.03
2023-02-12T09:41:46.943Z,103788.47
2023-02-12T09:44:31.754Z,103782.44
2023-02-12T09:47:19.521Z,103782.31
2023-02-12T09:50:10.039Z,103774.44
2023-02-12T09:52:37.324Z,103774.25
2023-02-12T09:55:04.693Z,103774.66
2023-02-12T09:57:36.554Z,103776.47
2023-02-12T10:00:09.342Z,103793.53
2023-02-12T10:02:38.029Z,103778.13
2023-02-12T10:05:06.646Z,103783.06
2023-02-12T10:07:51.917Z,103786.28
2023-02-12T10:11:00.563Z,103791.78
2023-02-12T10:14:05.427Z,103793.34
2023-02-12T10:16:37.958Z,103792.66
2023-02-12T10:19:17.017Z,103797.06
2023-02-12T10:22:25.100Z,103786.06
2023-02-12T10:25:06.481Z,103788.84
2023-02-12T10:27:47.236Z,103773.47
2023-02-12T10:30:21.037Z,103758.44
2023-02-12T10:32:51.598Z,103761.34
2023-02-12T10:35:21.066Z,103786.75
2023-02-12T10:38:02.945Z,103770.31
2023-02-12T10:40:33.942Z,103634.16
2023-02-12T10:43:02.798Z,103690.03
2023-02-12T10:45:40.263Z,103755.78
2023-02-12T10:48:31.392Z,103775.03
2023-02-12T10:51:30.459Z,103778.06
2023-02-12T10:53:57.048Z,103684.28
2023-02-12T10:56:25.343Z,103752.75
2023-02-12T10:59:00.282Z,103758.25
2023-02-12T11:01:28.252Z,103737.53
2023-02-12T11:03:57.322Z,103749.59
2023-02-12T11:06:29.955Z,103756.75
2023-02-12T11:08:57.267Z,103765.91
2023-02-12T11:11:38.272Z,103670.53
2023-02-12T11:14:17.545Z,103753.91
2023-02-12T11:16:52.170Z,103736.75
2023-02-12T11:19:23.526Z,103761.56
2023-02-12T11:21:50.963Z,103731.81
2023-02-12T11:24:31.873Z,103679.81
2023-02-12T11:27:16.754Z,103756.03
2023-02-12T11:29:44.558Z,103724.91
2023-02-12T11:32:20.042Z,103729.84
2023-02-12T11:35:35.116Z,103747.41
2023-02-12T11:38:03.445Z,103677.25
2023-02-12T11:40:33.768Z,103712.97
2023-02-12T11:43:06.851Z,103646.09
2023-02-12T11:45:49.805Z,103723.44
2023-02-12T11:48:20.985Z,103648.44
2023-02-12T11:50:50.706Z,103708.78
2023-02-12T11:53:25.568Z,103662.53
2023-02-12T11:55:55.673Z,103693.13
2023-02-12T11:58:24.913Z,103644.06
2023-02-12T12:01:05.661Z,103726.91
2023-02-12T12:03:58.356Z,103725.84
2023-02-12T12:06:49.793Z,103728.00
2023-02-12T12:09:29.825Z,103736.69
2023-02-12T12:12:34.137Z,103725.97
2023-02-12T12:15:26.352Z,103709.78
2023-02-12T12:18:21.140Z,103642.22
2023-02-12T12:20:55.337Z,103698.28
2023-02-12T12:23:35.591Z,103695.44
2023-02-12T12:26:12.869Z,103635.22
2023-02-12T12:28:51.441Z,103638.06
2023-02-12T12:31:25.845Z,103681.88
2023-02-12T12:34:12.380Z,103696.28
2023-02-12T12:36:57.841Z,103710.63
2023-02-12T12:39:36.882Z,103710.47
2023-02-12T12:42:15.631Z,103700.66
2023-02-12T12:44:51.245Z,103697.00
2023-02-12T12:47:31.824Z,103660.41
2023-02-12T12:50:20.495Z,103697.75
2023-02-12T12:52:59.373Z,103700.31
2023-02-12T12:55:59.780Z,103691.34
2023-02-12T12:58:32.361Z,103693.31
2023-02-12T13:01:02.051Z,103689.19
2023-02-12T13:03:44.035Z,103670.47
2023-02-12T13:06:21.084Z,103690.69
2023-02-12T13:08:58.799Z,103674.72
2023-02-12T13:11:49.794Z,103680.03
2023-02-12T13:14:27.594Z,103679.88
2023-02-12T13:17:30.443Z,103668.06
2023-02-12T13:20:08.273Z,103680.63
2023-02-12T13:22:49.089Z,103650.25
2023-02-12T13:25:22.695Z,103674.38
2023-02-12T13:27:51.926Z,103656.66
2023-02-12T13:30:23.731Z,103582.50
2023-02-12T13:33:24.549Z,103670.97
2023-02-12T13:36:00.468Z,103637.81
2023-02-12T13:38:32.456Z,103565.50
2023-02-12T13:41:04.716Z,103588.97
2023-02-12T13:43:49.021Z,103587.66
2023-02-12T13:46:55.919Z,103567.84
2023-02-12T13:49:33.974Z,103672.06
2023-02-12T13:52:09.669Z,103655.91
2023-02-12T13:55:11.422Z,103664.72
2023-02-12T13:57:38.175Z,103573.50
2023-02-12T14:00:08.910Z,103624.41
2023-02-12T14:02:38.716Z,103666.00
2023-02-12T14:05:20.942Z,103573.84
2023-02-12T14:07:54.062Z,103646.03
2023-02-12T14:10:25.672Z,103651.09
2023-02-12T14:12:55.519Z,103631.06
2023-02-12T14:15:35.013Z,103649.19
2023-02-12T14:18:29.660Z,103634.16
2023-02-12T14:21:11.038Z,103644.03
2023-02-12T14:23:44.754Z,103645.53
2023-02-12T14:26:12.808Z,103625.22
2023-02-12T14:29:01.897Z,103649.50
2023-02-12T14:31:37.339Z,103563.38
2023-02-12T14:34:07.474Z,103642.28
2023-02-12T14:36:38.830Z,103654.66
2023-02-12T14:39:29.543Z,103648.50
2023-02-12T14:42:16.031Z,103647.50
2023-02-12T14:44:57.190Z,103610.88
2023-02-12T14:47:29.918Z,103640.25
2023-02-12T14:50:02.605Z,103549.47
2023-02-12T14:52:31.125Z,103644.72
2023-02-12T14:55:02.609Z,103540.19
2023-02-12T14:57:37.489Z,103641.44
2023-02-12T15:00:28.357Z,103640.34
2023-02-12T15:03:02.516Z,103594.75
2023-02-12T15:05:34.514Z,103641.63
2023-02-12T15:08:18.110Z,103518.97
2023-02-12T15:10:52.596Z,103517.31
2023-02-12T15:13:22.198Z,103635.28
2023-02-12T15:16:02.623Z,103583.19
2023-02-12T15:19:01.942Z,103535.59
2023-02-12T15:21:33.203Z,103587.03
2023-02-12T15:24:08.287Z,103623.47
2023-02-12T15:26:45.258Z,103592.00
2023-02-12T15:29:36.337Z,103616.81
2023-02-12T15:32:06.386Z,103615.44
2023-02-12T15:34:37.904Z,103592.38
2023-02-12T15:37:07.399Z,103534.72
2023-02-12T15:39:44.079Z,103533.25
2023-02-12T15:42:24.284Z,103603.28
2023-02-12T15:44:51.053Z,103610.91
2023-02-12T15:47:24.739Z,103576.84
2023-02-12T15:49:51.296Z,103596.53
2023-02-12T15:52:21.992Z,103492.91
2023-02-12T15:54:49.176Z,103585.16
2023-02-12T15:57:23.968Z,103594.59
2023-02-12T15:59:53.215Z,103619.97
2023-02-12T16:02:32.877Z,103523.66
2023-02-12T16:05:02.208Z,103529.13
2023-02-12T16:07:35.038Z,103520.63
2023-02-12T16:10:02.760Z,103595.75
2023-02-12T16:12:33.653Z,103582.72
2023-02-12T16:15:00.899Z,103579.75
2023-02-12T16:17:38.112Z,103565.75
2023-02-12T16:20:08.758Z,103497.09
2023-02-12T16:22:40.890Z,103581.03
2023-02-12T16:25:37.648Z,103601.09
2023-02-12T16:28:15.600Z,103583.59
2023-02-12T16:30:44.188Z,103564.09
2023-02-12T16:33:40.799Z,103605.84
2023-02-12T16:36:14.202Z,103508.75
2023-02-12T16:38:46.726Z,103518.66
2023-02-12T16:41:25.274Z,103607.09
2023-02-12T16:44:17.940Z,103610.59
2023-02-12T16:46:48.605Z,103606.91
2023-02-12T16:49:20.176Z,103601.31
2023-02-12T16:51:47.895Z,103604.41
2023-02-12T16:54:33.141Z,103617.97
2023-02-12T16:57:00.342Z,103615.22
2023-02-12T16:59:27.451Z,103581.31
2023-02-12T17:02:10.626Z,103577.28
2023-02-12T17:04:37.293Z,103560.78
2023-02-12T17:07:04.134Z,103500.25
2023-02-12T17:09:30.864Z,103588.91
2023-02-12T17:11:57.516Z,103518.25
2023-02-12T17:14:24.197Z,103593.81
2023-02-12T17:16:50.779Z,103612.03
2023-02-12T17:19:17.341Z,103513.81
2023-02-12T17:21:49.288Z,103536.72
2023-02-12T17:24:24.642Z,103591.69
2023-02-12T17:26:51.518Z,103589.66
2023-02-12T17:29:19.317Z,103602.19
2023-02-12T17:31:47.895Z,103617.97
2023-02-12T17:34:15.804Z,103516.38
2023-02-12T17:36:42.746Z,103533.78
2023-02-12T17:39:11.966Z,103526.44
2023-02-12T17:41:39.283Z,103536.75
2023-02-12T17:44:06.059Z,103586.31
2023-02-12T17:46:33.625Z,103596.41
2023-02-12T17:49:00.415Z,103630.03
2023-02-12T17:51:27.211Z,103627.91
2023-02-12T17:53:53.770Z,103625.88
2023-02-12T17:56:22.875Z,103631.88
2023-02-12T17:58:49.799Z,103529.94
2023-02-12T18:01:19.366Z,103639.63
2023-02-12T18:03:46.131Z,103600.22
2023-02-12T18:06:16.277Z,103643.09
2023-02-12T18:08:43.474Z,103534.22
2023-02-12T18:11:11.479Z,103484.19
2023-02-12T18:13:39.268Z,103558.56
2023-02-12T18:16:08.134Z,103634.44
2023-02-12T18:18:35.902Z,103553.59
2023-02-12T18:21:10.398Z,103552.28
2023-02-12T18:23:38.336Z,103628.53
2023-02-12T18:26:13.959Z,103610.22
2023-02-12T18:28:40.840Z,103615.19
2023-02-12T18:31:08.255Z,103619.69
2023-02-12T18:33:35.601Z,103620.81
2023-02-12T18:36:08.770Z,103645.56
2023-02-12T18:38:37.019Z,103605.94
2023-02-12T18:41:09.743Z,103643.03
2023-02-12T18:43:37.054Z,103602.06
2023-02-12T18:46:08.386Z,103631.50
2023-02-12T18:48:35.393Z,103544.44
2023-02-12T18:51:03.966Z,103583.72
2023-02-12T18:53:31.023Z,103639.34
2023-02-12T18:55:57.769Z,103538.72
2023-02-12T18:58:24.920Z,103544.94
2023-02-12T19:00:51.543Z,103622.84
2023-02-12T19:03:18.111Z,103520.31
2023-02-12T19:05:44.712Z,103601.06
2023-02-12T19:08:11.672Z,103540.75
2023-02-12T19:10:39.578Z,103590.03
2023-02-12T19:13:06.387Z,103535.25
2023-02-12T19:15:32.931Z,103590.75
2023-02-12T19:17:59.542Z,103586.78
2023-02-12T19:20:26.158Z,103585.75
2023-02-12T19:22:52.697Z,103591.88
2023-02-12T19:25:19.388Z,103601.25
2023-02-12T19:27:45.994Z,103516.94
2023-02-12T19:30:13.029Z,103548.09
2023-02-12T19:32:39.683Z,103524.28
2023-02-12T19:35:06.620Z,103616.81
2023-02-12T19:37:33.280Z,103544.44
2023-02-12T19:39:59.874Z,103607.66
2023-02-12T19:42:26.553Z,103578.34
2023-02-12T19:44:53.121Z,103535.25
2023-02-12T19:47:19.672Z,103519.38
2023-02-12T19:49:46.241Z,103552.97
2023-02-12T19:52:12.812Z,103583.72
2023-02-12T19:54:39.391Z,103489.03
2023-02-12T19:57:09.147Z,103593.28
2023-02-12T19:59:36.323Z,103583.84
2023-02-12T20:02:03.838Z,103588.41
2023-02-12T20:04:30.965Z,103577.63
2023-02-12T20:06:57.865Z,103607.13
2023-02-12T20:09:24.905Z,103601.34
2023-02-12T20:11:53.253Z,103538.94
2023-02-12T20:14:22.487Z,103517.84
2023-02-12T20:16:50.502Z,103574.97
2023-02-12T20:19:23.947Z,103592.28
2023-02-12T20:21:55.214Z,103558.16
2023-02-12T20:24:31.218Z,103511.63
2023-02-12T20:27:00.217Z,103515.31
2023-02-12T20:29:27.008Z,103614.91
2023-02-12T20:31:53.841Z,103611.13
2023-02-12T20:34:22.003Z,103597.19
2023-02-12T20:36:48.774Z,103505.75
2023-02-12T20:39:17.833Z,103603.91
2023-02-12T20:41:44.440Z,103564.19
2023-02-12T20:44:16.010Z,103615.31
2023-02-12T20:46:54.506Z,103496.41
2023-02-12T20:49:25.166Z,103518.38
2023-02-12T20:51:52.563Z,103580.69
2023-02-12T20:54:19.198Z,103562.16
2023-02-12T20:56:45.749Z,103606.97
2023-02-12T20:59:12.515Z,103598.81
2023-02-12T21:01:41.700Z,103359.31
2023-02-12T21:04:14.517Z,103547.28
2023-02-12T21:06:41.978Z,103616.34
2023-02-12T21:09:10.018Z,103607.59
2023-02-12T21:11:37.203Z,103518.72
2023-02-12T21:14:20.802Z,103572.34
2023-02-12T21:16:48.527Z,103583.75
2023-02-12T21:19:15.231Z,103595.38
2023-02-12T21:21:45.142Z,103600.97
2023-02-12T21:24:15.054Z,103600.75
2023-02-12T21:26:41.859Z,103558.41
2023-02-12T21:29:08.506Z,103589.88
2023-02-12T21:31:39.844Z,103488.38
2023-02-12T21:34:08.129Z,103574.78
2023-02-12T21:36:37.613Z,103590.19
2023-02-12T21:39:06.136Z,103590.28
2023-02-12T21:41:35.722Z,103504.88
2023-02-12T21:44:06.271Z,103500.09
2023-02-12T21:46:34.721Z,103555.59
2023-02-12T21:49:01.777Z,103587.84
2023-02-12T21:51:31.824Z,103556.50
2023-02-12T21:54:02.385Z,103495.97
2023-02-12T21:56:29.318Z,103564.44
2023-02-12T21:58:58.051Z,103479.47
2023-02-12T22:01:28.848Z,103578.09
2023-02-12T22:03:55.727Z,103576.75
2023-02-12T22:06:24.639Z,103562.00
2023-02-12T22:08:52.783Z,103536.22
2023-02-12T22:11:21.270Z,103604.56
2023-02-12T22:13:48.317Z,103477.63
2023-02-12T22:16:19.097Z,103587.25
2023-02-12T22:18:47.717Z,103548.66
2023-02-12T22:21:16.027Z,103550.06
2023-02-12T22:23:43.802Z,103535.88
2023-02-12T22:26:22.149Z,103560.78
2023-02-12T22:28:57.794Z,103471.72
2023-02-12T22:31:28.494Z,103581.66
2023-02-12T22:33:58.126Z,103589.50
2023-02-12T22:36:25.256Z,103566.66
2023-02-12T22:38:53.701Z,103557.41
2023-02-12T22:41:21.161Z,103508.56
2023-02-12T22:43:48.306Z,103575.84
2023-02-12T22:46:16.166Z,103492.50
2023-02-12T22:48:43.154Z,103488.81
2023-02-12T22:51:12.500Z,103484.25
2023-02-12T22:53:39.065Z,103569.31
2023-02-12T22:56:06.594Z,103582.16
2023-02-12T22:58:34.147Z,103593.16
2023-02-12T23:01:16.614Z,103574.22
2023-02-12T23:03:44.456Z,103584.41
2023-02-12T23:06:13.891Z,103569.53
2023-02-12T23:08:40.910Z,103541.78
2023-02-12T23:11:08.651Z,103506.44
2023-02-12T23:13:35.998Z,103400.69
2023-02-12T23:16:03.468Z,103512.84
2023-02-12T23:18:30.565Z,103556.28
2023-02-12T23:20:57.581Z,103537.03
2023-02-12T23:23:24.440Z,103515.91
2023-02-12T23:25:51.494Z,103566.25
2023-02-12T23:28:18.071Z,103467.03
2023-02-12T23:30:44.818Z,103545.88
2023-02-12T23:33:11.498Z,103564.53
2023-02-12T23:35:38.359Z,103507.06
2023-02-12T23:38:05.367Z,103521.41
2023-02-12T23:40:33.160Z,103541.56
2023-02-12T23:43:00.088Z,103544.00
2023-02-12T23:45:28.154Z,103532.91
2023-02-12T23:47:55.284Z,103431.88
2023-02-12T23:50:22.058Z,103539.91
2023-02-12T23:52:48.702Z,103507.72
2023-02-12T23:55:15.861Z,103529.53
2023-02-12T23:57:42.424Z,103490.81
